Al Baha, Saudi Arabia

1:20 PM AST on July 22, 2014 (GMT +0300)
Al Baha (OEBA) Elev 5420 ft | 20.30 °N, 41.63 °E | Change Station

Current weather conditions updated 20 minutes ago

Partly Cloudy
Partly Cloudy
91 °F
Feels Like 91 °F
N
16
Wind Variable Wind from WNW

Today is forecast to be nearly the same temperature as yesterday.

Today
High -- | Low -- °F
--% Chance of Precip.
Yesterday
High -- | Low -- °F
Precip. -- in
5:44 AM 6:55 PM
Waning Crescent, 18% visible
Pressure 30.04 in
Visibility 6.2 miles
Clouds Few 3000 ft
Dew Point 46 °F
Humidity 21%
Rainfall 0.00 in
Snow Depth Not available.
UV 17 out of 12
Pollen Not available.
Air Quality Not available.
Flu Activity Not available.
METAR OEBA 221000Z 29014KT 9999 FEW030 33/08 Q1017 NOSIG

More Conditions Fewer Conditions

Pressure 30.04 in
Visibility 6.2 miles
Clouds Few 3000 ft
Dew Point 46 °F
Humidity 21%
Rainfall 0.00 in
Snow Depth Not available.
UV 17 out of 12
Pollen Not available.
Air Quality Not available.
Flu Activity Not available.
METAR OEBA 221000Z 29014KT 9999 FEW030 33/08 Q1017 NOSIG

More Conditions Fewer Conditions

10-Day Weather Forecast

LIGHTNING

Thunderstorms are forecast for your area. Cloud conditions might be right for producing strikes in the next few days, though lightning itself cannot be forecasted.

Lightning is a visible electrical discharge produced by a thunderstorm, based on the build up of oppositely charged particles within a cloud and from cloud to ground.

Know how to stay safe in a lightning storm.

Check out these Lightning WunderPhotos!

Almanac

Astronomy

Jul. 22, 2014 Rise Set
Actual Time 5:44 AM AST 6:55 PM AST
Civil Twilight 5:20 AM AST 7:18 PM AST
Nautical Twilight 4:52 AM AST 7:47 PM AST
Astronomical Twilight 4:23 AM AST 8:16 PM AST
Moon 1:55 AM AST 3:17 PM AST
Length of Visible Light 13h 58m
Length of Day
13h 10m
Tomorrow will be 0m 42s shorter.
Waning Crescent, 18% of the Moon is Illuminated
Today
Waning Crescent
Jul 26
New
Aug 3
First Quarter
Aug 10
Full
Aug 17
Last Quarter

Yesterday's Extremes

Country Highs Country Lows

Community

WunderPhotos

Upload Photos

1,736,199 photos uploaded!

Nearby

Snow Depth

Not available.

Earthquake Activity

City Distance Mag. Time & Date
No recent earthquake activity has been reported nearby.
Minimum magnitude displayed is 2.5.

Coastal Water Temperatures

Place Temperature
No Stations Reporting

Nearby Weather Stations

There are no personal weather stations in this area.